sensor_id;sensor_type;location;lat;lon;timestamp;P1;durP1;ratioP1;P2;durP2;ratioP2
23310;SDS011;11828;51.508;18.118;2023-03-01T00:01:14;219.88;;;75.88;;
23310;SDS011;11828;51.508;18.118;2023-03-01T00:03:46;233.48;;;78.65;;
23310;SDS011;11828;51.508;18.118;2023-03-01T00:06:13;214.48;;;72.88;;
23310;SDS011;11828;51.508;18.118;2023-03-01T00:08:39;227.65;;;73.55;;
23310;SDS011;11828;51.508;18.118;2023-03-01T00:11:07;210.02;;;73.70;;
23310;SDS011;11828;51.508;18.118;2023-03-01T00:13:33;196.13;;;68.07;;
23310;SDS011;11828;51.508;18.118;2023-03-01T00:16:04;207.93;;;69.97;;
23310;SDS011;11828;51.508;18.118;2023-03-01T00:18:33;189.35;;;67.18;;
23310;SDS011;11828;51.508;18.118;2023-03-01T00:21:00;190.85;;;65.30;;
23310;SDS011;11828;51.508;18.118;2023-03-01T00:23:26;189.45;;;64.93;;
23310;SDS011;11828;51.508;18.118;2023-03-01T00:25:53;199.52;;;70.75;;
23310;SDS011;11828;51.508;18.118;2023-03-01T00:28:19;183.10;;;63.40;;
23310;SDS011;11828;51.508;18.118;2023-03-01T00:30:46;179.55;;;65.72;;
23310;SDS011;11828;51.508;18.118;2023-03-01T00:33:12;195.18;;;67.30;;
23310;SDS011;11828;51.508;18.118;2023-03-01T00:35:39;172.18;;;65.55;;
23310;SDS011;11828;51.508;18.118;2023-03-01T00:38:05;185.75;;;63.75;;
23310;SDS011;11828;51.508;18.118;2023-03-01T00:40:33;192.68;;;69.35;;
23310;SDS011;11828;51.508;18.118;2023-03-01T00:43:00;180.80;;;69.03;;
23310;SDS011;11828;51.508;18.118;2023-03-01T00:45:27;188.43;;;64.28;;
23310;SDS011;11828;51.508;18.118;2023-03-01T00:47:56;185.07;;;66.45;;
23310;SDS011;11828;51.508;18.118;2023-03-01T00:50:23;189.05;;;68.35;;
23310;SDS011;11828;51.508;18.118;2023-03-01T00:52:53;211.45;;;74.55;;
23310;SDS011;11828;51.508;18.118;2023-03-01T00:55:21;236.18;;;77.70;;
23310;SDS011;11828;51.508;18.118;2023-03-01T00:57:48;229.30;;;81.18;;
23310;SDS011;11828;51.508;18.118;2023-03-01T01:00:14;197.88;;;71.60;;
23310;SDS011;11828;51.508;18.118;2023-03-01T01:02:40;235.65;;;83.32;;
23310;SDS011;11828;51.508;18.118;2023-03-01T01:05:07;242.43;;;85.43;;
23310;SDS011;11828;51.508;18.118;2023-03-01T01:07:33;245.15;;;86.65;;
23310;SDS011;11828;51.508;18.118;2023-03-01T01:10:00;240.82;;;88.25;;
23310;SDS011;11828;51.508;18.118;2023-03-01T01:12:26;241.45;;;92.57;;
23310;SDS011;11828;51.508;18.118;2023-03-01T01:14:52;256.30;;;94.80;;
23310;SDS011;11828;51.508;18.118;2023-03-01T01:17:18;257.00;;;93.47;;
23310;SDS011;11828;51.508;18.118;2023-03-01T01:19:45;257.85;;;90.00;;
23310;SDS011;11828;51.508;18.118;2023-03-01T01:22:11;241.80;;;84.00;;
23310;SDS011;11828;51.508;18.118;2023-03-01T01:24:37;221.85;;;80.43;;
23310;SDS011;11828;51.508;18.118;2023-03-01T01:27:03;233.98;;;81.68;;
23310;SDS011;11828;51.508;18.118;2023-03-01T01:29:30;240.73;;;81.55;;
23310;SDS011;11828;51.508;18.118;2023-03-01T01:31:56;225.90;;;77.95;;
23310;SDS011;11828;51.508;18.118;2023-03-01T01:34:22;222.98;;;77.38;;
23310;SDS011;11828;51.508;18.118;2023-03-01T01:36:49;236.52;;;79.97;;
23310;SDS011;11828;51.508;18.118;2023-03-01T01:39:19;227.40;;;81.43;;
23310;SDS011;11828;51.508;18.118;2023-03-01T01:41:47;250.15;;;85.43;;
23310;SDS011;11828;51.508;18.118;2023-03-01T01:47:06;273.10;;;103.40;;
23310;SDS011;11828;51.508;18.118;2023-03-01T01:49:42;274.40;;;105.03;;
23310;SDS011;11828;51.508;18.118;2023-03-01T01:52:26;261.63;;;95.85;;
23310;SDS011;11828;51.508;18.118;2023-03-01T01:55:00;225.85;;;82.85;;
23310;SDS011;11828;51.508;18.118;2023-03-01T01:57:38;206.15;;;75.70;;
23310;SDS011;11828;51.508;18.118;2023-03-01T02:00:18;213.38;;;82.38;;
23310;SDS011;11828;51.508;18.118;2023-03-01T02:02:52;213.57;;;84.13;;
23310;SDS011;11828;51.508;18.118;2023-03-01T02:05:32;216.93;;;81.20;;
23310;SDS011;11828;51.508;18.118;2023-03-01T02:08:05;207.60;;;78.13;;
23310;SDS011;11828;51.508;18.118;2023-03-01T02:10:33;213.73;;;78.18;;
23310;SDS011;11828;51.508;18.118;2023-03-01T02:13:00;211.35;;;78.82;;
23310;SDS011;11828;51.508;18.118;2023-03-01T02:15:31;234.20;;;81.88;;
23310;SDS011;11828;51.508;18.118;2023-03-01T02:18:02;257.10;;;86.90;;
23310;SDS011;11828;51.508;18.118;2023-03-01T02:20:33;245.27;;;86.63;;
23310;SDS011;11828;51.508;18.118;2023-03-01T02:23:11;241.07;;;85.40;;
23310;SDS011;11828;51.508;18.118;2023-03-01T02:25:40;225.27;;;83.47;;
23310;SDS011;11828;51.508;18.118;2023-03-01T02:30:45;217.07;;;80.63;;
23310;SDS011;11828;51.508;18.118;2023-03-01T02:33:35;230.23;;;82.05;;
23310;SDS011;11828;51.508;18.118;2023-03-01T02:36:04;231.23;;;82.25;;
23310;SDS011;11828;51.508;18.118;2023-03-01T02:38:38;226.75;;;82.88;;
23310;SDS011;11828;51.508;18.118;2023-03-01T02:41:08;232.32;;;81.05;;
23310;SDS011;11828;51.508;18.118;2023-03-01T02:43:39;215.18;;;79.80;;
23310;SDS011;11828;51.508;18.118;2023-03-01T02:46:07;235.70;;;84.68;;
23310;SDS011;11828;51.508;18.118;2023-03-01T02:48:46;236.35;;;87.07;;
23310;SDS011;11828;51.508;18.118;2023-03-01T02:51:24;228.13;;;84.68;;
23310;SDS011;11828;51.508;18.118;2023-03-01T02:54:34;233.88;;;82.97;;
23310;SDS011;11828;51.508;18.118;2023-03-01T02:57:36;230.20;;;82.88;;
23310;SDS011;11828;51.508;18.118;2023-03-01T03:00:07;224.70;;;81.35;;
23310;SDS011;11828;51.508;18.118;2023-03-01T03:02:48;218.65;;;78.05;;
23310;SDS011;11828;51.508;18.118;2023-03-01T03:07:45;203.18;;;78.18;;
23310;SDS011;11828;51.508;18.118;2023-03-01T03:10:14;196.77;;;71.90;;
23310;SDS011;11828;51.508;18.118;2023-03-01T03:12:49;195.63;;;73.55;;
23310;SDS011;11828;51.508;18.118;2023-03-01T03:15:18;195.93;;;72.18;;
23310;SDS011;11828;51.508;18.118;2023-03-01T03:17:46;194.38;;;74.80;;
23310;SDS011;11828;51.508;18.118;2023-03-01T03:20:13;221.90;;;81.82;;
23310;SDS011;11828;51.508;18.118;2023-03-01T03:22:44;218.95;;;83.18;;
23310;SDS011;11828;51.508;18.118;2023-03-01T03:25:16;253.70;;;87.70;;
23310;SDS011;11828;51.508;18.118;2023-03-01T03:27:45;220.60;;;82.90;;
23310;SDS011;11828;51.508;18.118;2023-03-01T03:30:15;218.68;;;84.55;;
23310;SDS011;11828;51.508;18.118;2023-03-01T03:32:45;229.25;;;87.07;;
23310;SDS011;11828;51.508;18.118;2023-03-01T03:35:20;222.35;;;83.50;;
23310;SDS011;11828;51.508;18.118;2023-03-01T03:37:54;208.55;;;84.78;;
23310;SDS011;11828;51.508;18.118;2023-03-01T03:40:30;198.55;;;80.40;;
23310;SDS011;11828;51.508;18.118;2023-03-01T03:43:06;216.68;;;75.95;;
23310;SDS011;11828;51.508;18.118;2023-03-01T03:45:38;218.20;;;79.55;;
23310;SDS011;11828;51.508;18.118;2023-03-01T03:48:06;214.57;;;80.47;;
23310;SDS011;11828;51.508;18.118;2023-03-01T03:50:34;215.63;;;79.18;;
23310;SDS011;11828;51.508;18.118;2023-03-01T03:53:02;206.65;;;73.53;;
23310;SDS011;11828;51.508;18.118;2023-03-01T03:55:31;200.65;;;71.32;;
23310;SDS011;11828;51.508;18.118;2023-03-01T03:57:59;188.73;;;73.10;;
23310;SDS011;11828;51.508;18.118;2023-03-01T04:00:32;204.80;;;82.93;;
23310;SDS011;11828;51.508;18.118;2023-03-01T04:03:00;203.60;;;73.00;;
23310;SDS011;11828;51.508;18.118;2023-03-01T04:05:27;187.80;;;69.80;;
23310;SDS011;11828;51.508;18.118;2023-03-01T04:07:53;184.52;;;71.95;;
23310;SDS011;11828;51.508;18.118;2023-03-01T04:10:44;182.95;;;70.35;;
23310;SDS011;11828;51.508;18.118;2023-03-01T04:13:14;246.38;;;83.95;;
23310;SDS011;11828;51.508;18.118;2023-03-01T04:15:45;193.60;;;69.63;;
23310;SDS011;11828;51.508;18.118;2023-03-01T04:18:16;174.35;;;64.00;;
23310;SDS011;11828;51.508;18.118;2023-03-01T04:20:44;171.18;;;63.75;;
23310;SDS011;11828;51.508;18.118;2023-03-01T04:23:15;195.35;;;66.10;;
23310;SDS011;11828;51.508;18.118;2023-03-01T04:25:47;191.00;;;68.88;;
23310;SDS011;11828;51.508;18.118;2023-03-01T04:28:23;186.40;;;68.78;;
23310;SDS011;11828;51.508;18.118;2023-03-01T04:30:53;195.02;;;72.35;;
23310;SDS011;11828;51.508;18.118;2023-03-01T04:33:22;190.43;;;74.43;;
23310;SDS011;11828;51.508;18.118;2023-03-01T04:35:49;182.05;;;74.47;;
23310;SDS011;11828;51.508;18.118;2023-03-01T04:38:17;177.30;;;67.22;;
23310;SDS011;11828;51.508;18.118;2023-03-01T04:40:44;184.45;;;70.72;;
23310;SDS011;11828;51.508;18.118;2023-03-01T04:43:11;190.95;;;71.10;;
23310;SDS011;11828;51.508;18.118;2023-03-01T04:45:40;181.45;;;65.72;;
23310;SDS011;11828;51.508;18.118;2023-03-01T04:48:07;155.10;;;60.22;;
23310;SDS011;11828;51.508;18.118;2023-03-01T04:50:33;151.25;;;58.10;;
23310;SDS011;11828;51.508;18.118;2023-03-01T04:53:00;191.73;;;69.20;;
23310;SDS011;11828;51.508;18.118;2023-03-01T04:55:27;235.68;;;85.32;;
23310;SDS011;11828;51.508;18.118;2023-03-01T04:57:54;180.18;;;67.22;;
23310;SDS011;11828;51.508;18.118;2023-03-01T05:00:21;148.32;;;56.60;;
23310;SDS011;11828;51.508;18.118;2023-03-01T05:02:57;130.27;;;49.85;;
23310;SDS011;11828;51.508;18.118;2023-03-01T05:05:33;129.55;;;49.35;;
23310;SDS011;11828;51.508;18.118;2023-03-01T05:08:04;127.78;;;49.25;;
23310;SDS011;11828;51.508;18.118;2023-03-01T05:10:33;140.80;;;53.70;;
23310;SDS011;11828;51.508;18.118;2023-03-01T05:13:02;141.60;;;48.78;;
23310;SDS011;11828;51.508;18.118;2023-03-01T05:15:30;136.35;;;49.10;;
23310;SDS011;11828;51.508;18.118;2023-03-01T05:17:57;167.05;;;55.63;;
23310;SDS011;11828;51.508;18.118;2023-03-01T05:20:26;155.77;;;56.38;;
23310;SDS011;11828;51.508;18.118;2023-03-01T05:22:58;250.80;;;71.55;;
23310;SDS011;11828;51.508;18.118;2023-03-01T05:25:25;375.60;;;98.65;;
23310;SDS011;11828;51.508;18.118;2023-03-01T05:27:52;232.82;;;70.22;;
23310;SDS011;11828;51.508;18.118;2023-03-01T05:30:18;267.02;;;72.13;;
23310;SDS011;11828;51.508;18.118;2023-03-01T05:32:46;405.42;;;100.13;;
23310;SDS011;11828;51.508;18.118;2023-03-01T05:35:16;266.52;;;75.95;;
23310;SDS011;11828;51.508;18.118;2023-03-01T05:37:43;157.13;;;57.55;;
23310;SDS011;11828;51.508;18.118;2023-03-01T05:40:14;140.82;;;54.33;;
23310;SDS011;11828;51.508;18.118;2023-03-01T05:45:12;135.60;;;53.22;;
23310;SDS011;11828;51.508;18.118;2023-03-01T05:47:40;138.98;;;55.08;;
23310;SDS011;11828;51.508;18.118;2023-03-01T05:50:13;151.88;;;53.22;;
23310;SDS011;11828;51.508;18.118;2023-03-01T05:52:49;273.85;;;86.50;;
23310;SDS011;11828;51.508;18.118;2023-03-01T05:55:22;196.63;;;68.68;;
23310;SDS011;11828;51.508;18.118;2023-03-01T05:57:49;153.48;;;57.78;;
23310;SDS011;11828;51.508;18.118;2023-03-01T06:00:17;140.20;;;56.83;;
23310;SDS011;11828;51.508;18.118;2023-03-01T06:02:47;128.73;;;52.53;;
23310;SDS011;11828;51.508;18.118;2023-03-01T06:05:14;140.48;;;55.85;;
23310;SDS011;11828;51.508;18.118;2023-03-01T06:07:41;128.60;;;50.20;;
23310;SDS011;11828;51.508;18.118;2023-03-01T06:10:07;133.82;;;51.72;;
23310;SDS011;11828;51.508;18.118;2023-03-01T06:12:35;128.02;;;49.00;;
23310;SDS011;11828;51.508;18.118;2023-03-01T06:15:03;155.32;;;53.80;;
23310;SDS011;11828;51.508;18.118;2023-03-01T06:17:32;297.50;;;88.63;;
23310;SDS011;11828;51.508;18.118;2023-03-01T06:20:03;383.67;;;98.47;;
23310;SDS011;11828;51.508;18.118;2023-03-01T06:22:31;334.38;;;102.65;;
23310;SDS011;11828;51.508;18.118;2023-03-01T06:24:57;284.45;;;88.95;;
23310;SDS011;11828;51.508;18.118;2023-03-01T06:27:23;227.00;;;77.00;;
23310;SDS011;11828;51.508;18.118;2023-03-01T06:29:49;249.48;;;87.63;;
23310;SDS011;11828;51.508;18.118;2023-03-01T06:32:16;325.95;;;105.50;;
23310;SDS011;11828;51.508;18.118;2023-03-01T06:34:42;248.25;;;85.68;;
23310;SDS011;11828;51.508;18.118;2023-03-01T06:37:08;172.90;;;66.00;;
23310;SDS011;11828;51.508;18.118;2023-03-01T06:39:34;211.32;;;76.82;;
23310;SDS011;11828;51.508;18.118;2023-03-01T06:42:01;325.02;;;117.18;;
23310;SDS011;11828;51.508;18.118;2023-03-01T06:44:28;333.45;;;122.68;;
23310;SDS011;11828;51.508;18.118;2023-03-01T06:46:54;298.05;;;114.93;;
23310;SDS011;11828;51.508;18.118;2023-03-01T06:49:20;217.70;;;85.80;;
23310;SDS011;11828;51.508;18.118;2023-03-01T06:51:47;194.95;;;78.38;;
23310;SDS011;11828;51.508;18.118;2023-03-01T06:54:14;224.23;;;97.40;;
23310;SDS011;11828;51.508;18.118;2023-03-01T06:56:40;257.13;;;115.60;;
23310;SDS011;11828;51.508;18.118;2023-03-01T06:59:06;200.77;;;92.28;;
23310;SDS011;11828;51.508;18.118;2023-03-01T07:01:33;168.27;;;73.95;;
23310;SDS011;11828;51.508;18.118;2023-03-01T07:03:58;150.27;;;69.47;;
23310;SDS011;11828;51.508;18.118;2023-03-01T07:06:25;165.00;;;75.63;;
23310;SDS011;11828;51.508;18.118;2023-03-01T07:08:51;145.23;;;71.90;;
23310;SDS011;11828;51.508;18.118;2023-03-01T07:11:17;153.60;;;76.20;;
23310;SDS011;11828;51.508;18.118;2023-03-01T07:13:43;128.65;;;60.70;;
23310;SDS011;11828;51.508;18.118;2023-03-01T07:16:09;133.98;;;66.40;;
23310;SDS011;11828;51.508;18.118;2023-03-01T07:18:35;129.02;;;62.65;;
23310;SDS011;11828;51.508;18.118;2023-03-01T07:21:05;110.63;;;54.55;;
23310;SDS011;11828;51.508;18.118;2023-03-01T07:23:36;110.10;;;53.67;;
23310;SDS011;11828;51.508;18.118;2023-03-01T07:26:02;98.78;;;48.58;;
23310;SDS011;11828;51.508;18.118;2023-03-01T07:28:29;100.72;;;48.22;;
23310;SDS011;11828;51.508;18.118;2023-03-01T07:31:00;82.07;;;44.00;;
23310;SDS011;11828;51.508;18.118;2023-03-01T07:33:30;93.38;;;46.10;;
23310;SDS011;11828;51.508;18.118;2023-03-01T07:35:57;79.70;;;43.97;;
23310;SDS011;11828;51.508;18.118;2023-03-01T07:38:26;100.20;;;47.13;;
23310;SDS011;11828;51.508;18.118;2023-03-01T07:40:52;90.78;;;48.47;;
23310;SDS011;11828;51.508;18.118;2023-03-01T07:43:19;89.68;;;46.95;;
23310;SDS011;11828;51.508;18.118;2023-03-01T07:45:46;89.05;;;48.05;;
23310;SDS011;11828;51.508;18.118;2023-03-01T07:48:12;98.65;;;52.17;;
23310;SDS011;11828;51.508;18.118;2023-03-01T07:50:38;102.55;;;54.92;;
23310;SDS011;11828;51.508;18.118;2023-03-01T07:53:04;110.85;;;61.90;;
23310;SDS011;11828;51.508;18.118;2023-03-01T07:55:30;95.35;;;50.38;;
23310;SDS011;11828;51.508;18.118;2023-03-01T07:57:56;133.27;;;78.35;;
23310;SDS011;11828;51.508;18.118;2023-03-01T08:00:23;112.63;;;64.38;;
23310;SDS011;11828;51.508;18.118;2023-03-01T08:02:49;125.30;;;74.50;;
23310;SDS011;11828;51.508;18.118;2023-03-01T08:05:15;106.13;;;59.90;;
23310;SDS011;11828;51.508;18.118;2023-03-01T08:07:41;93.90;;;53.78;;
23310;SDS011;11828;51.508;18.118;2023-03-01T08:10:08;92.90;;;52.90;;
23310;SDS011;11828;51.508;18.118;2023-03-01T08:12:35;80.35;;;46.53;;
23310;SDS011;11828;51.508;18.118;2023-03-01T08:15:01;80.97;;;43.65;;
23310;SDS011;11828;51.508;18.118;2023-03-01T08:17:28;73.45;;;41.83;;
23310;SDS011;11828;51.508;18.118;2023-03-01T08:19:54;66.15;;;38.65;;
23310;SDS011;11828;51.508;18.118;2023-03-01T08:22:20;60.78;;;36.45;;
23310;SDS011;11828;51.508;18.118;2023-03-01T08:24:46;58.88;;;37.15;;
23310;SDS011;11828;51.508;18.118;2023-03-01T08:27:14;61.33;;;39.05;;
23310;SDS011;11828;51.508;18.118;2023-03-01T08:29:42;53.80;;;36.13;;
23310;SDS011;11828;51.508;18.118;2023-03-01T08:32:08;59.97;;;39.67;;
23310;SDS011;11828;51.508;18.118;2023-03-01T08:34:34;54.58;;;36.22;;
23310;SDS011;11828;51.508;18.118;2023-03-01T08:37:01;60.40;;;37.30;;
23310;SDS011;11828;51.508;18.118;2023-03-01T08:39:27;58.13;;;37.45;;
23310;SDS011;11828;51.508;18.118;2023-03-01T08:41:53;51.97;;;34.42;;
23310;SDS011;11828;51.508;18.118;2023-03-01T08:44:20;49.65;;;34.85;;
23310;SDS011;11828;51.508;18.118;2023-03-01T08:46:46;59.22;;;39.85;;
23310;SDS011;11828;51.508;18.118;2023-03-01T08:49:16;52.55;;;34.70;;
23310;SDS011;11828;51.508;18.118;2023-03-01T08:51:44;54.45;;;35.47;;
23310;SDS011;11828;51.508;18.118;2023-03-01T08:54:13;52.03;;;33.75;;
23310;SDS011;11828;51.508;18.118;2023-03-01T08:56:47;47.83;;;31.15;;
23310;SDS011;11828;51.508;18.118;2023-03-01T08:59:14;49.22;;;30.88;;
23310;SDS011;11828;51.508;18.118;2023-03-01T09:01:42;42.25;;;27.58;;
23310;SDS011;11828;51.508;18.118;2023-03-01T09:04:11;41.53;;;28.63;;
23310;SDS011;11828;51.508;18.118;2023-03-01T09:06:38;38.30;;;26.65;;
23310;SDS011;11828;51.508;18.118;2023-03-01T09:09:05;39.65;;;26.85;;
23310;SDS011;11828;51.508;18.118;2023-03-01T09:11:31;45.67;;;28.77;;
23310;SDS011;11828;51.508;18.118;2023-03-01T09:13:58;42.75;;;28.63;;
23310;SDS011;11828;51.508;18.118;2023-03-01T09:16:25;38.22;;;26.95;;
23310;SDS011;11828;51.508;18.118;2023-03-01T09:18:52;38.90;;;25.65;;
23310;SDS011;11828;51.508;18.118;2023-03-01T09:21:20;38.13;;;25.23;;
23310;SDS011;11828;51.508;18.118;2023-03-01T09:23:48;34.63;;;24.45;;
23310;SDS011;11828;51.508;18.118;2023-03-01T09:26:16;36.80;;;24.90;;
23310;SDS011;11828;51.508;18.118;2023-03-01T09:28:46;37.55;;;25.27;;
23310;SDS011;11828;51.508;18.118;2023-03-01T09:31:14;34.72;;;25.02;;
23310;SDS011;11828;51.508;18.118;2023-03-01T09:33:42;40.47;;;26.02;;
23310;SDS011;11828;51.508;18.118;2023-03-01T09:36:12;33.22;;;22.70;;
23310;SDS011;11828;51.508;18.118;2023-03-01T09:38:41;37.05;;;21.48;;
23310;SDS011;11828;51.508;18.118;2023-03-01T09:41:11;28.75;;;19.92;;
23310;SDS011;11828;51.508;18.118;2023-03-01T09:43:48;27.77;;;19.00;;
23310;SDS011;11828;51.508;18.118;2023-03-01T09:46:29;25.33;;;18.23;;
23310;SDS011;11828;51.508;18.118;2023-03-01T09:49:17;24.02;;;16.85;;
23310;SDS011;11828;51.508;18.118;2023-03-01T09:51:56;27.80;;;19.58;;
23310;SDS011;11828;51.508;18.118;2023-03-01T09:54:26;28.58;;;19.40;;
23310;SDS011;11828;51.508;18.118;2023-03-01T09:57:14;31.80;;;19.85;;
23310;SDS011;11828;51.508;18.118;2023-03-01T10:03:26;41.58;;;24.33;;
23310;SDS011;11828;51.508;18.118;2023-03-01T10:05:49;34.78;;;21.95;;
23310;SDS011;11828;51.508;18.118;2023-03-01T10:08:26;35.03;;;19.80;;
23310;SDS011;11828;51.508;18.118;2023-03-01T10:11:02;29.52;;;18.65;;
23310;SDS011;11828;51.508;18.118;2023-03-01T10:13:46;32.38;;;18.52;;
23310;SDS011;11828;51.508;18.118;2023-03-01T10:17:06;30.58;;;18.38;;
23310;SDS011;11828;51.508;18.118;2023-03-01T10:20:17;36.92;;;23.55;;
23310;SDS011;11828;51.508;18.118;2023-03-01T10:22:48;36.72;;;19.75;;
23310;SDS011;11828;51.508;18.118;2023-03-01T10:25:23;24.52;;;16.58;;
23310;SDS011;11828;51.508;18.118;2023-03-01T10:31:27;27.33;;;15.40;;
23310;SDS011;11828;51.508;18.118;2023-03-01T10:34:08;28.00;;;15.38;;
23310;SDS011;11828;51.508;18.118;2023-03-01T10:36:42;26.05;;;15.27;;
23310;SDS011;11828;51.508;18.118;2023-03-01T10:39:12;25.85;;;15.10;;
23310;SDS011;11828;51.508;18.118;2023-03-01T10:41:51;23.73;;;14.73;;
23310;SDS011;11828;51.508;18.118;2023-03-01T10:44:41;22.45;;;14.73;;
23310;SDS011;11828;51.508;18.118;2023-03-01T10:47:14;26.85;;;14.93;;
23310;SDS011;11828;51.508;18.118;2023-03-01T10:49:54;25.13;;;14.85;;
23310;SDS011;11828;51.508;18.118;2023-03-01T10:55:02;26.80;;;14.77;;
23310;SDS011;11828;51.508;18.118;2023-03-01T10:57:50;24.77;;;14.07;;
23310;SDS011;11828;51.508;18.118;2023-03-01T11:00:53;32.58;;;16.13;;
23310;SDS011;11828;51.508;18.118;2023-03-01T11:03:32;28.95;;;15.82;;
23310;SDS011;11828;51.508;18.118;2023-03-01T11:06:05;27.35;;;15.60;;
23310;SDS011;11828;51.508;18.118;2023-03-01T11:16:47;35.67;;;16.65;;
23310;SDS011;11828;51.508;18.118;2023-03-01T11:19:24;30.55;;;16.65;;
23310;SDS011;11828;51.508;18.118;2023-03-01T11:21:55;40.78;;;18.33;;
23310;SDS011;11828;51.508;18.118;2023-03-01T11:24:49;39.28;;;16.73;;
23310;SDS011;11828;51.508;18.118;2023-03-01T11:27:19;38.75;;;18.15;;
23310;SDS011;11828;51.508;18.118;2023-03-01T11:30:06;44.50;;;18.75;;
23310;SDS011;11828;51.508;18.118;2023-03-01T11:32:56;39.30;;;18.65;;
23310;SDS011;11828;51.508;18.118;2023-03-01T11:38:44;43.10;;;17.27;;
23310;SDS011;11828;51.508;18.118;2023-03-01T11:41:20;33.67;;;16.92;;
23310;SDS011;11828;51.508;18.118;2023-03-01T11:44:00;31.77;;;15.93;;
23310;SDS011;11828;51.508;18.118;2023-03-01T12:01:27;26.08;;;13.05;;
23310;SDS011;11828;51.508;18.118;2023-03-01T12:27:05;24.65;;;14.23;;
23310;SDS011;11828;51.508;18.118;2023-03-01T12:38:56;21.85;;;13.65;;
23310;SDS011;11828;51.508;18.118;2023-03-01T12:50:31;21.83;;;14.30;;
23310;SDS011;11828;51.508;18.118;2023-03-01T12:53:14;32.15;;;21.38;;
23310;SDS011;11828;51.508;18.118;2023-03-01T12:56:23;24.88;;;16.33;;
23310;SDS011;11828;51.508;18.118;2023-03-01T13:04:31;25.60;;;15.18;;
23310;SDS011;11828;51.508;18.118;2023-03-01T13:07:25;25.80;;;15.90;;
23310;SDS011;11828;51.508;18.118;2023-03-01T13:13:14;21.52;;;13.18;;
23310;SDS011;11828;51.508;18.118;2023-03-01T13:15:48;20.50;;;13.48;;
23310;SDS011;11828;51.508;18.118;2023-03-01T13:28:36;19.85;;;13.30;;
23310;SDS011;11828;51.508;18.118;2023-03-01T13:31:10;19.40;;;12.98;;
23310;SDS011;11828;51.508;18.118;2023-03-01T13:33:49;21.13;;;13.55;;
23310;SDS011;11828;51.508;18.118;2023-03-01T13:46:53;19.10;;;11.32;;
23310;SDS011;11828;51.508;18.118;2023-03-01T13:50:15;16.52;;;11.52;;
23310;SDS011;11828;51.508;18.118;2023-03-01T13:57:56;21.20;;;13.25;;
23310;SDS011;11828;51.508;18.118;2023-03-01T14:08:32;18.95;;;12.98;;
23310;SDS011;11828;51.508;18.118;2023-03-01T14:11:13;21.02;;;13.60;;
23310;SDS011;11828;51.508;18.118;2023-03-01T14:14:02;20.13;;;14.50;;
23310;SDS011;11828;51.508;18.118;2023-03-01T14:20:17;22.33;;;13.23;;
23310;SDS011;11828;51.508;18.118;2023-03-01T14:22:52;25.20;;;16.20;;
23310;SDS011;11828;51.508;18.118;2023-03-01T14:25:34;24.20;;;14.38;;
23310;SDS011;11828;51.508;18.118;2023-03-01T14:28:13;23.58;;;14.30;;
23310;SDS011;11828;51.508;18.118;2023-03-01T14:30:45;27.77;;;14.93;;
23310;SDS011;11828;51.508;18.118;2023-03-01T14:33:18;22.80;;;14.05;;
23310;SDS011;11828;51.508;18.118;2023-03-01T14:36:03;22.77;;;13.35;;
23310;SDS011;11828;51.508;18.118;2023-03-01T14:38:39;27.70;;;16.20;;
23310;SDS011;11828;51.508;18.118;2023-03-01T14:41:08;33.72;;;17.95;;
23310;SDS011;11828;51.508;18.118;2023-03-01T14:43:57;25.95;;;15.98;;
23310;SDS011;11828;51.508;18.118;2023-03-01T14:46:38;32.55;;;19.77;;
23310;SDS011;11828;51.508;18.118;2023-03-01T14:49:13;31.40;;;19.55;;
23310;SDS011;11828;51.508;18.118;2023-03-01T14:51:50;33.65;;;20.42;;
23310;SDS011;11828;51.508;18.118;2023-03-01T14:54:24;54.28;;;30.67;;
23310;SDS011;11828;51.508;18.118;2023-03-01T14:57:00;31.83;;;19.30;;
23310;SDS011;11828;51.508;18.118;2023-03-01T14:59:27;33.70;;;18.17;;
23310;SDS011;11828;51.508;18.118;2023-03-01T15:01:57;39.88;;;18.73;;
23310;SDS011;11828;51.508;18.118;2023-03-01T15:04:24;36.20;;;18.33;;
23310;SDS011;11828;51.508;18.118;2023-03-01T15:06:53;36.28;;;18.38;;
23310;SDS011;11828;51.508;18.118;2023-03-01T15:09:21;34.70;;;17.80;;
23310;SDS011;11828;51.508;18.118;2023-03-01T15:11:48;26.55;;;13.05;;
23310;SDS011;11828;51.508;18.118;2023-03-01T15:14:28;30.80;;;12.50;;
23310;SDS011;11828;51.508;18.118;2023-03-01T15:17:30;31.17;;;11.35;;
23310;SDS011;11828;51.508;18.118;2023-03-01T15:19:59;20.90;;;10.05;;
23310;SDS011;11828;51.508;18.118;2023-03-01T15:22:47;31.40;;;11.80;;
23310;SDS011;11828;51.508;18.118;2023-03-01T15:25:18;27.20;;;11.30;;
23310;SDS011;11828;51.508;18.118;2023-03-01T15:27:49;36.80;;;11.88;;
23310;SDS011;11828;51.508;18.118;2023-03-01T15:30:18;28.27;;;11.68;;
23310;SDS011;11828;51.508;18.118;2023-03-01T15:33:15;31.35;;;12.48;;
23310;SDS011;11828;51.508;18.118;2023-03-01T15:35:49;25.08;;;12.43;;
23310;SDS011;11828;51.508;18.118;2023-03-01T15:41:23;27.52;;;13.27;;
23310;SDS011;11828;51.508;18.118;2023-03-01T15:43:57;34.78;;;14.65;;
23310;SDS011;11828;51.508;18.118;2023-03-01T15:46:46;39.75;;;16.42;;
23310;SDS011;11828;51.508;18.118;2023-03-01T15:52:05;42.70;;;16.75;;
23310;SDS011;11828;51.508;18.118;2023-03-01T15:54:57;45.22;;;17.02;;
23310;SDS011;11828;51.508;18.118;2023-03-01T15:57:30;48.60;;;18.88;;
23310;SDS011;11828;51.508;18.118;2023-03-01T15:59:56;52.53;;;18.95;;
23310;SDS011;11828;51.508;18.118;2023-03-01T16:02:23;42.90;;;18.33;;
23310;SDS011;11828;51.508;18.118;2023-03-01T16:04:50;53.50;;;18.52;;
23310;SDS011;11828;51.508;18.118;2023-03-01T16:07:16;50.95;;;19.42;;
23310;SDS011;11828;51.508;18.118;2023-03-01T16:09:43;47.03;;;20.13;;
23310;SDS011;11828;51.508;18.118;2023-03-01T16:12:15;58.35;;;23.00;;
23310;SDS011;11828;51.508;18.118;2023-03-01T16:14:42;56.45;;;20.77;;
23310;SDS011;11828;51.508;18.118;2023-03-01T16:17:09;45.55;;;19.88;;
23310;SDS011;11828;51.508;18.118;2023-03-01T16:19:38;49.38;;;21.13;;
23310;SDS011;11828;51.508;18.118;2023-03-01T16:22:06;48.78;;;20.42;;
23310;SDS011;11828;51.508;18.118;2023-03-01T16:24:34;41.83;;;19.25;;
23310;SDS011;11828;51.508;18.118;2023-03-01T16:27:01;45.45;;;19.02;;
23310;SDS011;11828;51.508;18.118;2023-03-01T16:29:28;48.10;;;18.55;;
23310;SDS011;11828;51.508;18.118;2023-03-01T16:31:55;46.97;;;19.10;;
23310;SDS011;11828;51.508;18.118;2023-03-01T16:34:21;45.45;;;19.58;;
23310;SDS011;11828;51.508;18.118;2023-03-01T16:36:48;59.75;;;20.85;;
23310;SDS011;11828;51.508;18.118;2023-03-01T16:39:14;55.85;;;22.20;;
23310;SDS011;11828;51.508;18.118;2023-03-01T16:41:41;64.93;;;28.73;;
23310;SDS011;11828;51.508;18.118;2023-03-01T16:44:07;69.45;;;29.02;;
23310;SDS011;11828;51.508;18.118;2023-03-01T16:46:33;66.30;;;27.27;;